sensor_id;sensor_type;location;lat;lon;timestamp;temperature;humidity
3954;DHT22;1991;48.682;9.030;2023-12-04T00:00:01;-5.20;99.90
3954;DHT22;1991;48.682;9.030;2023-12-04T00:02:28;-5.30;99.90
3954;DHT22;1991;48.682;9.030;2023-12-04T00:04:53;-5.30;99.90
3954;DHT22;1991;48.682;9.030;2023-12-04T00:07:19;-5.30;99.90
3954;DHT22;1991;48.682;9.030;2023-12-04T00:09:45;-5.30;99.90
3954;DHT22;1991;48.682;9.030;2023-12-04T00:12:10;-5.20;99.90
3954;DHT22;1991;48.682;9.030;2023-12-04T00:14:36;-5.20;99.90
3954;DHT22;1991;48.682;9.030;2023-12-04T00:17:01;-5.20;99.90
3954;DHT22;1991;48.682;9.030;2023-12-04T00:19:27;-5.20;99.90
3954;DHT22;1991;48.682;9.030;2023-12-04T00:21:52;-5.10;99.90
3954;DHT22;1991;48.682;9.030;2023-12-04T00:24:18;-5.10;99.90
3954;DHT22;1991;48.682;9.030;2023-12-04T00:26:43;-5.10;99.90
3954;DHT22;1991;48.682;9.030;2023-12-04T00:29:09;-5.10;99.90
3954;DHT22;1991;48.682;9.030;2023-12-04T00:31:34;-5.00;99.90
3954;DHT22;1991;48.682;9.030;2023-12-04T00:34:00;-4.90;99.90
3954;DHT22;1991;48.682;9.030;2023-12-04T00:36:26;-4.80;99.90
3954;DHT22;1991;48.682;9.030;2023-12-04T00:38:52;-4.80;99.90
3954;DHT22;1991;48.682;9.030;2023-12-04T00:41:18;-4.70;99.90
3954;DHT22;1991;48.682;9.030;2023-12-04T00:43:43;-4.70;99.90
3954;DHT22;1991;48.682;9.030;2023-12-04T00:46:09;-4.70;99.90
3954;DHT22;1991;48.682;9.030;2023-12-04T00:48:34;-4.70;99.90
3954;DHT22;1991;48.682;9.030;2023-12-04T00:51:00;-4.80;99.90
3954;DHT22;1991;48.682;9.030;2023-12-04T00:53:26;-4.80;99.90
3954;DHT22;1991;48.682;9.030;2023-12-04T00:55:51;-4.90;99.90
3954;DHT22;1991;48.682;9.030;2023-12-04T00:58:17;-4.90;99.90
3954;DHT22;1991;48.682;9.030;2023-12-04T01:00:42;-4.90;99.90
3954;DHT22;1991;48.682;9.030;2023-12-04T01:03:08;-5.00;99.90
3954;DHT22;1991;48.682;9.030;2023-12-04T01:05:34;-5.00;99.90
3954;DHT22;1991;48.682;9.030;2023-12-04T01:07:59;-5.00;99.90
3954;DHT22;1991;48.682;9.030;2023-12-04T01:10:25;-5.00;99.90
3954;DHT22;1991;48.682;9.030;2023-12-04T01:12:50;-5.00;99.90
3954;DHT22;1991;48.682;9.030;2023-12-04T01:15:16;-5.00;99.90
3954;DHT22;1991;48.682;9.030;2023-12-04T01:17:42;-5.00;99.90
3954;DHT22;1991;48.682;9.030;2023-12-04T01:20:07;-5.10;99.90
3954;DHT22;1991;48.682;9.030;2023-12-04T01:22:33;-5.10;99.90
3954;DHT22;1991;48.682;9.030;2023-12-04T01:24:59;-5.20;99.90
3954;DHT22;1991;48.682;9.030;2023-12-04T01:27:24;-5.20;99.90
3954;DHT22;1991;48.682;9.030;2023-12-04T01:29:50;-5.30;99.90
3954;DHT22;1991;48.682;9.030;2023-12-04T01:32:15;-5.20;99.90
3954;DHT22;1991;48.682;9.030;2023-12-04T01:34:41;-5.20;99.90
3954;DHT22;1991;48.682;9.030;2023-12-04T01:37:06;-5.10;99.90
3954;DHT22;1991;48.682;9.030;2023-12-04T01:39:32;-5.10;99.90
3954;DHT22;1991;48.682;9.030;2023-12-04T01:41:57;-5.10;99.90
3954;DHT22;1991;48.682;9.030;2023-12-04T01:44:24;-5.00;99.90
3954;DHT22;1991;48.682;9.030;2023-12-04T01:46:49;-5.00;99.90
3954;DHT22;1991;48.682;9.030;2023-12-04T01:49:15;-5.00;99.90
3954;DHT22;1991;48.682;9.030;2023-12-04T01:51:42;-5.10;99.90
3954;DHT22;1991;48.682;9.030;2023-12-04T01:54:08;-5.00;99.90
3954;DHT22;1991;48.682;9.030;2023-12-04T01:56:34;-5.00;99.90
3954;DHT22;1991;48.682;9.030;2023-12-04T01:59:01;-5.00;99.90
3954;DHT22;1991;48.682;9.030;2023-12-04T02:01:27;-5.00;99.90
3954;DHT22;1991;48.682;9.030;2023-12-04T02:03:54;-5.00;99.90
3954;DHT22;1991;48.682;9.030;2023-12-04T02:06:21;-5.10;99.90
3954;DHT22;1991;48.682;9.030;2023-12-04T02:08:48;-5.10;99.90
3954;DHT22;1991;48.682;9.030;2023-12-04T02:11:13;-5.10;99.90
3954;DHT22;1991;48.682;9.030;2023-12-04T02:13:39;-5.10;99.90
3954;DHT22;1991;48.682;9.030;2023-12-04T02:16:09;-5.10;99.90
3954;DHT22;1991;48.682;9.030;2023-12-04T02:18:35;-5.10;99.90
3954;DHT22;1991;48.682;9.030;2023-12-04T02:21:01;-5.20;99.90
3954;DHT22;1991;48.682;9.030;2023-12-04T02:23:28;-5.10;99.90
3954;DHT22;1991;48.682;9.030;2023-12-04T02:25:59;-5.20;99.90
3954;DHT22;1991;48.682;9.030;2023-12-04T02:28:32;-5.10;99.90
3954;DHT22;1991;48.682;9.030;2023-12-04T02:30:59;-5.10;99.90
3954;DHT22;1991;48.682;9.030;2023-12-04T02:33:27;-5.10;99.90
3954;DHT22;1991;48.682;9.030;2023-12-04T02:35:53;-5.10;99.90
3954;DHT22;1991;48.682;9.030;2023-12-04T02:38:21;-5.20;99.90
3954;DHT22;1991;48.682;9.030;2023-12-04T02:40:46;-5.10;99.90
3954;DHT22;1991;48.682;9.030;2023-12-04T02:43:12;-5.10;99.90
3954;DHT22;1991;48.682;9.030;2023-12-04T02:45:37;-5.10;99.90
3954;DHT22;1991;48.682;9.030;2023-12-04T02:48:03;-5.10;99.90
3954;DHT22;1991;48.682;9.030;2023-12-04T02:50:29;-5.10;99.90
3954;DHT22;1991;48.682;9.030;2023-12-04T02:52:54;-5.10;99.90
3954;DHT22;1991;48.682;9.030;2023-12-04T02:55:20;-5.00;99.90
3954;DHT22;1991;48.682;9.030;2023-12-04T02:57:45;-5.00;99.90
3954;DHT22;1991;48.682;9.030;2023-12-04T03:00:11;-5.00;99.90
3954;DHT22;1991;48.682;9.030;2023-12-04T03:02:37;-4.90;99.90
3954;DHT22;1991;48.682;9.030;2023-12-04T03:05:03;-4.90;99.90
3954;DHT22;1991;48.682;9.030;2023-12-04T03:07:28;-4.90;99.90
3954;DHT22;1991;48.682;9.030;2023-12-04T03:09:54;-4.80;99.90
3954;DHT22;1991;48.682;9.030;2023-12-04T03:12:19;-4.80;99.90
3954;DHT22;1991;48.682;9.030;2023-12-04T03:14:45;-4.80;99.90
3954;DHT22;1991;48.682;9.030;2023-12-04T03:17:11;-4.80;99.90
3954;DHT22;1991;48.682;9.030;2023-12-04T03:19:36;-4.80;99.90
3954;DHT22;1991;48.682;9.030;2023-12-04T03:22:02;-4.80;99.90
3954;DHT22;1991;48.682;9.030;2023-12-04T03:24:27;-4.70;99.90
3954;DHT22;1991;48.682;9.030;2023-12-04T03:26:54;-4.70;99.90
3954;DHT22;1991;48.682;9.030;2023-12-04T03:29:19;-4.70;99.90
3954;DHT22;1991;48.682;9.030;2023-12-04T03:31:45;-4.70;99.90
3954;DHT22;1991;48.682;9.030;2023-12-04T03:34:10;-4.70;99.90
3954;DHT22;1991;48.682;9.030;2023-12-04T03:36:36;-4.60;99.90
3954;DHT22;1991;48.682;9.030;2023-12-04T03:39:02;-4.60;99.90
3954;DHT22;1991;48.682;9.030;2023-12-04T03:41:28;-4.60;99.90
3954;DHT22;1991;48.682;9.030;2023-12-04T03:43:53;-4.50;99.90
3954;DHT22;1991;48.682;9.030;2023-12-04T03:46:19;-4.50;99.90
3954;DHT22;1991;48.682;9.030;2023-12-04T03:48:45;-4.50;99.90
3954;DHT22;1991;48.682;9.030;2023-12-04T03:51:11;-4.50;99.90
3954;DHT22;1991;48.682;9.030;2023-12-04T03:53:36;-4.40;99.90
3954;DHT22;1991;48.682;9.030;2023-12-04T03:56:02;-4.40;99.90
3954;DHT22;1991;48.682;9.030;2023-12-04T03:58:28;-4.40;99.90
3954;DHT22;1991;48.682;9.030;2023-12-04T04:00:53;-4.40;99.90
3954;DHT22;1991;48.682;9.030;2023-12-04T04:03:19;-4.30;99.90
3954;DHT22;1991;48.682;9.030;2023-12-04T04:05:44;-4.30;99.90
3954;DHT22;1991;48.682;9.030;2023-12-04T04:08:10;-4.30;99.90
3954;DHT22;1991;48.682;9.030;2023-12-04T04:10:36;-4.30;99.90
3954;DHT22;1991;48.682;9.030;2023-12-04T04:13:02;-4.20;99.90
3954;DHT22;1991;48.682;9.030;2023-12-04T04:15:27;-4.20;99.90
3954;DHT22;1991;48.682;9.030;2023-12-04T04:17:53;-4.20;99.90
3954;DHT22;1991;48.682;9.030;2023-12-04T04:20:19;-4.20;99.90
3954;DHT22;1991;48.682;9.030;2023-12-04T04:22:47;-4.20;99.90
3954;DHT22;1991;48.682;9.030;2023-12-04T04:25:12;-4.20;99.90
3954;DHT22;1991;48.682;9.030;2023-12-04T04:27:38;-4.30;99.90
3954;DHT22;1991;48.682;9.030;2023-12-04T04:30:04;-4.30;99.90
3954;DHT22;1991;48.682;9.030;2023-12-04T04:32:30;-4.20;99.90
3954;DHT22;1991;48.682;9.030;2023-12-04T04:34:55;-4.20;99.90
3954;DHT22;1991;48.682;9.030;2023-12-04T04:37:21;-4.10;99.90
3954;DHT22;1991;48.682;9.030;2023-12-04T04:39:46;-4.10;99.90
3954;DHT22;1991;48.682;9.030;2023-12-04T04:42:12;-4.10;99.90
3954;DHT22;1991;48.682;9.030;2023-12-04T04:44:37;-4.10;99.90
3954;DHT22;1991;48.682;9.030;2023-12-04T04:47:03;-4.10;99.90
3954;DHT22;1991;48.682;9.030;2023-12-04T04:49:29;-4.10;99.90
3954;DHT22;1991;48.682;9.030;2023-12-04T04:51:54;-4.00;99.90
3954;DHT22;1991;48.682;9.030;2023-12-04T04:54:20;-4.00;99.90
3954;DHT22;1991;48.682;9.030;2023-12-04T04:56:45;-3.90;99.90
3954;DHT22;1991;48.682;9.030;2023-12-04T04:59:11;-3.90;99.90
3954;DHT22;1991;48.682;9.030;2023-12-04T05:01:36;-3.80;99.90
3954;DHT22;1991;48.682;9.030;2023-12-04T05:04:02;-3.80;99.90
3954;DHT22;1991;48.682;9.030;2023-12-04T05:06:28;-3.80;99.90
3954;DHT22;1991;48.682;9.030;2023-12-04T05:08:54;-3.70;99.90
3954;DHT22;1991;48.682;9.030;2023-12-04T05:11:19;-3.70;99.90
3954;DHT22;1991;48.682;9.030;2023-12-04T05:13:45;-3.70;99.90
3954;DHT22;1991;48.682;9.030;2023-12-04T05:16:11;-3.70;99.90
3954;DHT22;1991;48.682;9.030;2023-12-04T05:18:38;-3.70;99.90
3954;DHT22;1991;48.682;9.030;2023-12-04T05:21:03;-3.70;99.90
3954;DHT22;1991;48.682;9.030;2023-12-04T05:23:34;-3.70;99.90
3954;DHT22;1991;48.682;9.030;2023-12-04T05:25:59;-3.70;99.90
3954;DHT22;1991;48.682;9.030;2023-12-04T05:28:25;-3.70;99.90
3954;DHT22;1991;48.682;9.030;2023-12-04T05:30:51;-3.70;99.90
3954;DHT22;1991;48.682;9.030;2023-12-04T05:33:16;-3.70;99.90
3954;DHT22;1991;48.682;9.030;2023-12-04T05:35:42;-3.70;99.90
3954;DHT22;1991;48.682;9.030;2023-12-04T05:38:07;-3.70;99.90
3954;DHT22;1991;48.682;9.030;2023-12-04T05:40:34;-3.70;99.90
3954;DHT22;1991;48.682;9.030;2023-12-04T05:42:59;-3.70;99.90
3954;DHT22;1991;48.682;9.030;2023-12-04T05:45:25;-3.70;99.90
3954;DHT22;1991;48.682;9.030;2023-12-04T05:47:50;-3.70;99.90
3954;DHT22;1991;48.682;9.030;2023-12-04T05:50:18;-3.70;99.90
3954;DHT22;1991;48.682;9.030;2023-12-04T05:52:43;-3.80;99.90
3954;DHT22;1991;48.682;9.030;2023-12-04T05:55:10;-3.80;99.90
3954;DHT22;1991;48.682;9.030;2023-12-04T05:57:35;-3.80;99.90
3954;DHT22;1991;48.682;9.030;2023-12-04T06:00:01;-3.80;99.90
3954;DHT22;1991;48.682;9.030;2023-12-04T06:02:26;-3.70;99.90
3954;DHT22;1991;48.682;9.030;2023-12-04T06:04:55;-3.80;99.90
3954;DHT22;1991;48.682;9.030;2023-12-04T06:07:21;-3.80;99.90
3954;DHT22;1991;48.682;9.030;2023-12-04T06:09:46;-3.70;99.90
3954;DHT22;1991;48.682;9.030;2023-12-04T06:12:12;-3.60;99.90
3954;DHT22;1991;48.682;9.030;2023-12-04T06:14:37;-3.60;99.90
3954;DHT22;1991;48.682;9.030;2023-12-04T06:17:03;-3.60;99.90
3954;DHT22;1991;48.682;9.030;2023-12-04T06:19:29;-3.60;99.90
3954;DHT22;1991;48.682;9.030;2023-12-04T06:21:55;-3.60;99.90
3954;DHT22;1991;48.682;9.030;2023-12-04T06:24:20;-3.60;99.90
3954;DHT22;1991;48.682;9.030;2023-12-04T06:26:50;-3.70;99.90
3954;DHT22;1991;48.682;9.030;2023-12-04T06:29:16;-3.60;99.90
3954;DHT22;1991;48.682;9.030;2023-12-04T06:31:42;-3.60;99.90
3954;DHT22;1991;48.682;9.030;2023-12-04T06:34:08;-3.60;99.90
3954;DHT22;1991;48.682;9.030;2023-12-04T06:36:38;-3.60;99.90
3954;DHT22;1991;48.682;9.030;2023-12-04T06:39:06;-3.60;99.90
3954;DHT22;1991;48.682;9.030;2023-12-04T06:41:34;-3.60;99.90
3954;DHT22;1991;48.682;9.030;2023-12-04T06:44:00;-3.50;99.90
3954;DHT22;1991;48.682;9.030;2023-12-04T06:46:28;-3.50;99.90
3954;DHT22;1991;48.682;9.030;2023-12-04T06:48:57;-3.40;99.90
3954;DHT22;1991;48.682;9.030;2023-12-04T06:51:24;-3.40;99.90
3954;DHT22;1991;48.682;9.030;2023-12-04T06:53:50;-3.30;99.90
3954;DHT22;1991;48.682;9.030;2023-12-04T06:56:15;-3.30;99.90
3954;DHT22;1991;48.682;9.030;2023-12-04T06:58:41;-3.20;99.90
3954;DHT22;1991;48.682;9.030;2023-12-04T07:01:06;-3.20;99.90
3954;DHT22;1991;48.682;9.030;2023-12-04T07:03:32;-3.20;99.90
3954;DHT22;1991;48.682;9.030;2023-12-04T07:05:58;-3.10;99.90
3954;DHT22;1991;48.682;9.030;2023-12-04T07:08:24;-3.00;99.90
3954;DHT22;1991;48.682;9.030;2023-12-04T07:10:49;-3.00;99.90
3954;DHT22;1991;48.682;9.030;2023-12-04T07:13:15;-2.90;99.90
3954;DHT22;1991;48.682;9.030;2023-12-04T07:15:41;-2.90;99.90
3954;DHT22;1991;48.682;9.030;2023-12-04T07:18:07;-2.90;99.90
3954;DHT22;1991;48.682;9.030;2023-12-04T07:20:32;-2.80;99.90
3954;DHT22;1991;48.682;9.030;2023-12-04T07:22:58;-2.90;99.90
3954;DHT22;1991;48.682;9.030;2023-12-04T07:25:24;-2.80;99.90
3954;DHT22;1991;48.682;9.030;2023-12-04T07:27:49;-2.80;99.90
3954;DHT22;1991;48.682;9.030;2023-12-04T07:30:15;-2.70;99.90
3954;DHT22;1991;48.682;9.030;2023-12-04T07:32:41;-2.60;99.90
3954;DHT22;1991;48.682;9.030;2023-12-04T07:35:07;-2.60;99.90
3954;DHT22;1991;48.682;9.030;2023-12-04T07:37:32;-2.50;99.90
3954;DHT22;1991;48.682;9.030;2023-12-04T07:39:58;-2.50;99.90
3954;DHT22;1991;48.682;9.030;2023-12-04T07:42:24;-2.40;99.90
3954;DHT22;1991;48.682;9.030;2023-12-04T07:44:50;-2.30;99.90
3954;DHT22;1991;48.682;9.030;2023-12-04T07:47:15;-2.30;99.90
3954;DHT22;1991;48.682;9.030;2023-12-04T07:49:42;-2.20;99.90
3954;DHT22;1991;48.682;9.030;2023-12-04T07:52:08;-2.20;99.90
3954;DHT22;1991;48.682;9.030;2023-12-04T07:54:34;-2.10;99.90
3954;DHT22;1991;48.682;9.030;2023-12-04T07:56:59;-2.10;99.90
3954;DHT22;1991;48.682;9.030;2023-12-04T07:59:25;-1.90;99.90
3954;DHT22;1991;48.682;9.030;2023-12-04T08:01:54;-1.80;99.90
3954;DHT22;1991;48.682;9.030;2023-12-04T08:04:20;-1.80;99.90
3954;DHT22;1991;48.682;9.030;2023-12-04T08:06:45;-1.70;99.90
3954;DHT22;1991;48.682;9.030;2023-12-04T08:09:11;-1.70;99.90
3954;DHT22;1991;48.682;9.030;2023-12-04T08:11:36;-1.70;99.90
3954;DHT22;1991;48.682;9.030;2023-12-04T08:14:03;-1.60;99.90
3954;DHT22;1991;48.682;9.030;2023-12-04T08:16:28;-1.50;99.90
3954;DHT22;1991;48.682;9.030;2023-12-04T08:18:55;-1.60;99.90
3954;DHT22;1991;48.682;9.030;2023-12-04T08:21:20;-1.60;99.90
3954;DHT22;1991;48.682;9.030;2023-12-04T08:23:46;-1.50;99.90
3954;DHT22;1991;48.682;9.030;2023-12-04T08:26:11;-1.40;99.90
3954;DHT22;1991;48.682;9.030;2023-12-04T08:28:37;-1.30;99.90
3954;DHT22;1991;48.682;9.030;2023-12-04T08:31:07;-1.20;99.90
3954;DHT22;1991;48.682;9.030;2023-12-04T08:33:33;-1.10;99.90
3954;DHT22;1991;48.682;9.030;2023-12-04T08:36:00;-1.00;99.90
3954;DHT22;1991;48.682;9.030;2023-12-04T08:38:25;-1.00;99.90
3954;DHT22;1991;48.682;9.030;2023-12-04T08:40:51;-0.90;99.90
3954;DHT22;1991;48.682;9.030;2023-12-04T08:43:17;-0.90;99.90
3954;DHT22;1991;48.682;9.030;2023-12-04T08:45:45;-0.90;99.90
3954;DHT22;1991;48.682;9.030;2023-12-04T08:48:10;-0.90;99.90
3954;DHT22;1991;48.682;9.030;2023-12-04T08:50:36;-0.90;99.90
3954;DHT22;1991;48.682;9.030;2023-12-04T08:53:03;-1.00;99.90
3954;DHT22;1991;48.682;9.030;2023-12-04T08:55:29;-1.20;99.90
3954;DHT22;1991;48.682;9.030;2023-12-04T08:57:54;-1.30;99.90
3954;DHT22;1991;48.682;9.030;2023-12-04T09:00:20;-1.10;99.90
3954;DHT22;1991;48.682;9.030;2023-12-04T09:02:47;-1.10;99.90
3954;DHT22;1991;48.682;9.030;2023-12-04T09:05:13;-0.90;99.90
3954;DHT22;1991;48.682;9.030;2023-12-04T09:07:38;-0.80;99.90
3954;DHT22;1991;48.682;9.030;2023-12-04T09:10:04;-0.80;99.90
3954;DHT22;1991;48.682;9.030;2023-12-04T09:12:30;-0.70;99.90
3954;DHT22;1991;48.682;9.030;2023-12-04T09:14:55;-0.50;99.90
3954;DHT22;1991;48.682;9.030;2023-12-04T09:17:21;-0.40;99.90
3954;DHT22;1991;48.682;9.030;2023-12-04T09:19:46;-0.20;99.90
3954;DHT22;1991;48.682;9.030;2023-12-04T09:22:12;-0.10;99.90
3954;DHT22;1991;48.682;9.030;2023-12-04T09:24:38;0.00;99.90
3954;DHT22;1991;48.682;9.030;2023-12-04T09:27:03;0.00;99.90
3954;DHT22;1991;48.682;9.030;2023-12-04T09:29:31;0.00;99.90
3954;DHT22;1991;48.682;9.030;2023-12-04T09:31:56;-0.20;99.90
3954;DHT22;1991;48.682;9.030;2023-12-04T09:34:22;-0.20;99.90
3954;DHT22;1991;48.682;9.030;2023-12-04T09:36:47;-0.20;99.90
3954;DHT22;1991;48.682;9.030;2023-12-04T09:39:13;-0.10;99.90
3954;DHT22;1991;48.682;9.030;2023-12-04T09:41:40;0.00;99.90
3954;DHT22;1991;48.682;9.030;2023-12-04T09:44:07;0.20;99.90
3954;DHT22;1991;48.682;9.030;2023-12-04T09:46:34;0.20;99.90
3954;DHT22;1991;48.682;9.030;2023-12-04T09:49:00;0.20;99.90
3954;DHT22;1991;48.682;9.030;2023-12-04T09:51:27;0.20;99.90
3954;DHT22;1991;48.682;9.030;2023-12-04T09:53:54;0.30;99.90
3954;DHT22;1991;48.682;9.030;2023-12-04T09:56:22;0.30;99.90
3954;DHT22;1991;48.682;9.030;2023-12-04T09:58:52;0.30;99.90
3954;DHT22;1991;48.682;9.030;2023-12-04T10:01:18;0.50;99.90
3954;DHT22;1991;48.682;9.030;2023-12-04T10:03:46;0.70;99.90
3954;DHT22;1991;48.682;9.030;2023-12-04T10:06:15;1.20;99.90
3954;DHT22;1991;48.682;9.030;2023-12-04T10:08:43;1.20;99.90
3954;DHT22;1991;48.682;9.030;2023-12-04T10:11:10;1.10;99.90
3954;DHT22;1991;48.682;9.030;2023-12-04T10:13:36;1.00;99.90
3954;DHT22;1991;48.682;9.030;2023-12-04T10:16:01;0.90;99.90
3954;DHT22;1991;48.682;9.030;2023-12-04T10:18:30;0.70;99.90
3954;DHT22;1991;48.682;9.030;2023-12-04T10:20:58;0.60;99.90
3954;DHT22;1991;48.682;9.030;2023-12-04T10:23:41;0.50;99.90
3954;DHT22;1991;48.682;9.030;2023-12-04T10:26:07;0.60;99.90
3954;DHT22;1991;48.682;9.030;2023-12-04T10:28:33;0.80;99.90
3954;DHT22;1991;48.682;9.030;2023-12-04T10:30:59;1.10;99.90
3954;DHT22;1991;48.682;9.030;2023-12-04T10:33:25;1.40;99.90
3954;DHT22;1991;48.682;9.030;2023-12-04T10:35:53;1.80;99.90
3954;DHT22;1991;48.682;9.030;2023-12-04T10:38:20;1.90;99.90
3954;DHT22;1991;48.682;9.030;2023-12-04T10:40:46;2.10;99.90
3954;DHT22;1991;48.682;9.030;2023-12-04T10:43:23;2.30;99.90
3954;DHT22;1991;48.682;9.030;2023-12-04T10:45:50;2.30;99.90
3954;DHT22;1991;48.682;9.030;2023-12-04T10:48:18;2.10;99.90
3954;DHT22;1991;48.682;9.030;2023-12-04T10:50:47;2.20;99.90
3954;DHT22;1991;48.682;9.030;2023-12-04T10:53:14;2.50;99.90
3954;DHT22;1991;48.682;9.030;2023-12-04T10:55:41;3.10;99.90
3954;DHT22;1991;48.682;9.030;2023-12-04T10:58:12;3.70;99.30
3954;DHT22;1991;48.682;9.030;2023-12-04T11:00:47;4.10;98.00
3954;DHT22;1991;48.682;9.030;2023-12-04T11:03:19;4.20;96.60
3954;DHT22;1991;48.682;9.030;2023-12-04T11:05:49;4.10;96.50
3954;DHT22;1991;48.682;9.030;2023-12-04T11:08:17;4.00;96.40
3954;DHT22;1991;48.682;9.030;2023-12-04T11:11:05;3.80;96.10
3954;DHT22;1991;48.682;9.030;2023-12-04T11:13:37;3.50;96.90
3954;DHT22;1991;48.682;9.030;2023-12-04T11:16:20;3.30;97.20
3954;DHT22;1991;48.682;9.030;2023-12-04T11:18:53;3.10;98.10
3954;DHT22;1991;48.682;9.030;2023-12-04T11:21:20;3.00;98.70
3954;DHT22;1991;48.682;9.030;2023-12-04T11:23:47;2.80;99.90
3954;DHT22;1991;48.682;9.030;2023-12-04T11:26:14;2.70;99.90
3954;DHT22;1991;48.682;9.030;2023-12-04T11:28:40;2.70;99.90
3954;DHT22;1991;48.682;9.030;2023-12-04T11:31:07;2.70;99.90
3954;DHT22;1991;48.682;9.030;2023-12-04T11:33:41;2.80;99.90
3954;DHT22;1991;48.682;9.030;2023-12-04T11:36:13;2.90;99.90
3954;DHT22;1991;48.682;9.030;2023-12-04T11:38:46;3.10;99.90
3954;DHT22;1991;48.682;9.030;2023-12-04T11:41:17;3.30;99.90
3954;DHT22;1991;48.682;9.030;2023-12-04T11:43:45;3.40;99.90
3954;DHT22;1991;48.682;9.030;2023-12-04T11:46:12;3.40;99.90
3954;DHT22;1991;48.682;9.030;2023-12-04T11:48:39;3.40;99.90
3954;DHT22;1991;48.682;9.030;2023-12-04T11:51:08;3.60;99.90
3954;DHT22;1991;48.682;9.030;2023-12-04T11:53:40;3.60;99.90
3954;DHT22;1991;48.682;9.030;2023-12-04T11:56:12;3.70;99.90
3954;DHT22;1991;48.682;9.030;2023-12-04T11:58:45;3.80;99.90
3954;DHT22;1991;48.682;9.030;2023-12-04T12:01:10;3.90;99.90
3954;DHT22;1991;48.682;9.030;2023-12-04T12:03:36;4.00;99.90
3954;DHT22;1991;48.682;9.030;2023-12-04T12:06:04;4.10;99.90
3954;DHT22;1991;48.682;9.030;2023-12-04T12:08:30;4.00;99.90
3954;DHT22;1991;48.682;9.030;2023-12-04T12:10:56;3.80;99.90
3954;DHT22;1991;48.682;9.030;2023-12-04T12:13:23;3.90;99.90
3954;DHT22;1991;48.682;9.030;2023-12-04T12:15:52;4.00;99.90
3954;DHT22;1991;48.682;9.030;2023-12-04T12:18:18;4.10;99.90
3954;DHT22;1991;48.682;9.030;2023-12-04T12:20:44;4.10;99.90
3954;DHT22;1991;48.682;9.030;2023-12-04T12:23:09;4.30;99.90
3954;DHT22;1991;48.682;9.030;2023-12-04T12:25:35;4.50;99.90
3954;DHT22;1991;48.682;9.030;2023-12-04T12:28:05;4.60;99.90
3954;DHT22;1991;48.682;9.030;2023-12-04T12:30:30;4.50;99.90
3954;DHT22;1991;48.682;9.030;2023-12-04T12:32:56;4.30;99.90
3954;DHT22;1991;48.682;9.030;2023-12-04T12:35:23;4.10;99.90
3954;DHT22;1991;48.682;9.030;2023-12-04T12:37:48;3.70;99.90
3954;DHT22;1991;48.682;9.030;2023-12-04T12:40:14;3.60;99.90
3954;DHT22;1991;48.682;9.030;2023-12-04T12:42:40;3.50;99.90
3954;DHT22;1991;48.682;9.030;2023-12-04T12:45:07;3.30;99.90
3954;DHT22;1991;48.682;9.030;2023-12-04T12:47:35;3.30;99.90
3954;DHT22;1991;48.682;9.030;2023-12-04T12:50:01;3.30;99.90
3954;DHT22;1991;48.682;9.030;2023-12-04T12:52:28;3.20;99.90
3954;DHT22;1991;48.682;9.030;2023-12-04T12:54:54;3.20;99.90
3954;DHT22;1991;48.682;9.030;2023-12-04T12:57:19;3.20;99.90
3954;DHT22;1991;48.682;9.030;2023-12-04T12:59:45;3.20;99.90
3954;DHT22;1991;48.682;9.030;2023-12-04T13:02:11;3.20;99.90
3954;DHT22;1991;48.682;9.030;2023-12-04T13:04:37;3.10;99.90
3954;DHT22;1991;48.682;9.030;2023-12-04T13:07:03;3.10;99.90
3954;DHT22;1991;48.682;9.030;2023-12-04T13:09:31;3.10;99.90
3954;DHT22;1991;48.682;9.030;2023-12-04T13:11:57;3.10;99.90
3954;DHT22;1991;48.682;9.030;2023-12-04T13:14:22;3.00;99.90
3954;DHT22;1991;48.682;9.030;2023-12-04T13:16:48;3.00;99.90
3954;DHT22;1991;48.682;9.030;2023-12-04T13:19:15;2.90;99.90
3954;DHT22;1991;48.682;9.030;2023-12-04T13:21:45;3.00;99.90
3954;DHT22;1991;48.682;9.030;2023-12-04T13:24:11;2.90;99.90
3954;DHT22;1991;48.682;9.030;2023-12-04T13:26:37;2.90;99.90
3954;DHT22;1991;48.682;9.030;2023-12-04T13:29:03;2.80;99.90
3954;DHT22;1991;48.682;9.030;2023-12-04T13:31:28;2.70;99.90
3954;DHT22;1991;48.682;9.030;2023-12-04T13:33:54;2.80;99.90
3954;DHT22;1991;48.682;9.030;2023-12-04T13:36:19;2.80;99.90
3954;DHT22;1991;48.682;9.030;2023-12-04T13:38:45;2.70;99.90
3954;DHT22;1991;48.682;9.030;2023-12-04T13:41:11;2.80;99.90
3954;DHT22;1991;48.682;9.030;2023-12-04T13:43:55;2.80;99.90
3954;DHT22;1991;48.682;9.030;2023-12-04T13:46:21;2.80;99.90
3954;DHT22;1991;48.682;9.030;2023-12-04T13:48:48;2.80;99.90
3954;DHT22;1991;48.682;9.030;2023-12-04T13:51:13;2.60;99.90
3954;DHT22;1991;48.682;9.030;2023-12-04T13:53:40;2.50;99.90
3954;DHT22;1991;48.682;9.030;2023-12-04T13:56:11;2.40;99.90
3954;DHT22;1991;48.682;9.030;2023-12-04T13:58:36;2.50;99.90
3954;DHT22;1991;48.682;9.030;2023-12-04T14:01:02;2.30;99.90
3954;DHT22;1991;48.682;9.030;2023-12-04T14:03:37;2.30;99.90
3954;DHT22;1991;48.682;9.030;2023-12-04T14:06:03;2.40;99.90
3954;DHT22;1991;48.682;9.030;2023-12-04T14:08:29;2.50;99.90
3954;DHT22;1991;48.682;9.030;2023-12-04T14:10:55;2.50;99.90
3954;DHT22;1991;48.682;9.030;2023-12-04T14:13:20;2.60;99.90
3954;DHT22;1991;48.682;9.030;2023-12-04T14:15:46;2.60;99.90
3954;DHT22;1991;48.682;9.030;2023-12-04T14:18:11;2.50;99.90
3954;DHT22;1991;48.682;9.030;2023-12-04T14:20:37;2.50;99.90
3954;DHT22;1991;48.682;9.030;2023-12-04T14:23:03;2.40;99.90
3954;DHT22;1991;48.682;9.030;2023-12-04T14:25:30;2.20;99.90
3954;DHT22;1991;48.682;9.030;2023-12-04T14:27:55;2.10;99.90
3954;DHT22;1991;48.682;9.030;2023-12-04T14:30:21;2.20;99.90
3954;DHT22;1991;48.682;9.030;2023-12-04T14:32:46;2.20;99.90
3954;DHT22;1991;48.682;9.030;2023-12-04T14:35:13;2.40;99.90
3954;DHT22;1991;48.682;9.030;2023-12-04T14:37:39;2.50;99.90
3954;DHT22;1991;48.682;9.030;2023-12-04T14:40:05;2.50;99.90
3954;DHT22;1991;48.682;9.030;2023-12-04T14:42:31;2.50;99.90
3954;DHT22;1991;48.682;9.030;2023-12-04T14:44:57;2.40;99.90
3954;DHT22;1991;48.682;9.030;2023-12-04T14:47:22;2.30;99.90
3954;DHT22;1991;48.682;9.030;2023-12-04T14:49:48;2.30;99.90
3954;DHT22;1991;48.682;9.030;2023-12-04T14:52:19;2.10;99.90
3954;DHT22;1991;48.682;9.030;2023-12-04T14:54:47;2.10;99.90
3954;DHT22;1991;48.682;9.030;2023-12-04T14:57:31;2.00;99.90
3954;DHT22;1991;48.682;9.030;2023-12-04T14:59:56;2.00;99.90
3954;DHT22;1991;48.682;9.030;2023-12-04T15:02:40;1.90;99.90
3954;DHT22;1991;48.682;9.030;2023-12-04T15:05:24;1.90;99.90
3954;DHT22;1991;48.682;9.030;2023-12-04T15:08:05;2.00;99.90
3954;DHT22;1991;48.682;9.030;2023-12-04T15:10:48;2.00;99.90
3954;DHT22;1991;48.682;9.030;2023-12-04T15:13:43;2.10;99.90
3954;DHT22;1991;48.682;9.030;2023-12-04T15:16:19;2.10;99.90
3954;DHT22;1991;48.682;9.030;2023-12-04T15:18:55;2.10;99.90
3954;DHT22;1991;48.682;9.030;2023-12-04T15:21:21;2.10;99.90
3954;DHT22;1991;48.682;9.030;2023-12-04T15:23:47;2.10;99.90
3954;DHT22;1991;48.682;9.030;2023-12-04T15:26:13;2.10;99.90
3954;DHT22;1991;48.682;9.030;2023-12-04T15:28:40;2.10;99.90
3954;DHT22;1991;48.682;9.030;2023-12-04T15:31:06;2.10;99.90
3954;DHT22;1991;48.682;9.030;2023-12-04T15:33:32;2.10;99.90
3954;DHT22;1991;48.682;9.030;2023-12-04T15:35:57;1.90;99.90
3954;DHT22;1991;48.682;9.030;2023-12-04T15:38:23;1.80;99.90
3954;DHT22;1991;48.682;9.030;2023-12-04T15:40:49;1.80;99.90
3954;DHT22;1991;48.682;9.030;2023-12-04T15:43:20;1.80;99.90
3954;DHT22;1991;48.682;9.030;2023-12-04T15:45:46;1.70;99.90
3954;DHT22;1991;48.682;9.030;2023-12-04T15:48:12;1.70;99.90
3954;DHT22;1991;48.682;9.030;2023-12-04T15:50:38;1.80;99.90
3954;DHT22;1991;48.682;9.030;2023-12-04T15:53:03;1.70;99.90
3954;DHT22;1991;48.682;9.030;2023-12-04T15:55:29;1.70;99.90
3954;DHT22;1991;48.682;9.030;2023-12-04T15:57:55;1.80;99.90
3954;DHT22;1991;48.682;9.030;2023-12-04T16:00:22;1.80;99.90
3954;DHT22;1991;48.682;9.030;2023-12-04T16:02:48;1.80;99.90